createdAt,value
2022-10-05T00:02:24.353Z,77604.03
2022-10-05T00:04:56.499Z,77596.31
2022-10-05T00:07:24.613Z,77613.66
2022-10-05T00:10:00.035Z,77625.22
2022-10-05T00:12:29.896Z,77631.00
2022-10-05T00:15:00.293Z,77632.94
2022-10-05T00:17:30.665Z,77634.88
2022-10-05T00:19:57.399Z,77638.72
2022-10-05T00:22:31.176Z,77638.72
2022-10-05T00:25:03.215Z,77636.78
2022-10-05T00:27:36.761Z,77642.56
2022-10-05T00:30:16.646Z,77648.34
2022-10-05T00:32:43.865Z,77658.00
2022-10-05T00:35:12.623Z,77650.28
2022-10-05T00:37:40.069Z,77667.63
2022-10-05T00:40:36.769Z,77669.56
2022-10-05T00:43:12.583Z,77661.84
2022-10-05T00:46:07.720Z,77665.72
2022-10-05T00:48:52.955Z,77667.63
2022-10-05T00:51:29.932Z,77669.56
2022-10-05T00:54:07.165Z,77665.72
2022-10-05T00:56:39.931Z,77673.41
2022-10-05T00:59:18.520Z,77669.56
2022-10-05T01:02:20.584Z,77683.06
2022-10-05T01:04:53.670Z,77692.69
2022-10-05T01:07:29.407Z,77700.41
2022-10-05T01:10:45.520Z,77696.53
2022-10-05T01:13:21.302Z,77704.25
2022-10-05T01:15:50.959Z,77708.13
2022-10-05T01:18:53.120Z,77715.81
2022-10-05T01:21:22.782Z,77719.69
2022-10-05T01:24:01.750Z,77723.53
2022-10-05T01:26:44.160Z,77727.38
2022-10-05T01:29:18.736Z,77727.38
2022-10-05T01:32:17.836Z,77731.25
2022-10-05T01:34:57.661Z,77711.97
2022-10-05T01:37:47.430Z,77710.03
2022-10-05T01:40:29.891Z,77717.75
2022-10-05T01:43:13.604Z,77715.81
2022-10-05T01:46:08.093Z,77715.81
2022-10-05T01:49:28.882Z,77711.97
2022-10-05T01:51:58.115Z,77711.97
2022-10-05T01:54:55.355Z,77719.69
2022-10-05T01:57:42.304Z,77723.53
2022-10-05T02:00:21.039Z,77727.38
2022-10-05T02:02:52.778Z,77715.81
2022-10-05T02:05:27.937Z,77708.13
2022-10-05T02:08:00.380Z,77708.13
2022-10-05T02:10:35.451Z,77719.69
2022-10-05T02:13:12.288Z,77723.53
2022-10-05T02:16:09.312Z,77719.69
2022-10-05T02:18:47.131Z,77727.38
2022-10-05T02:21:14.862Z,77735.09
2022-10-05T02:23:44.891Z,77733.19
2022-10-05T02:26:12.800Z,77723.53
2022-10-05T02:28:45.696Z,77719.69
2022-10-05T02:31:19.730Z,77719.69
2022-10-05T02:33:48.494Z,77715.81
2022-10-05T02:36:29.374Z,77692.69
2022-10-05T02:39:27.055Z,77700.41
2022-10-05T02:42:16.066Z,77704.25
2022-10-05T02:45:12.329Z,77700.41
2022-10-05T02:48:02.809Z,77711.97
2022-10-05T02:50:38.870Z,77727.38
2022-10-05T02:53:17.526Z,77733.19
2022-10-05T02:56:02.400Z,77738.97
2022-10-05T02:59:00.047Z,77738.97
2022-10-05T03:01:44.147Z,77744.75
2022-10-05T03:04:15.780Z,77738.97
2022-10-05T03:06:52.981Z,77733.19
2022-10-05T03:09:22.711Z,77735.09
2022-10-05T03:12:18.743Z,77742.81
2022-10-05T03:15:08.841Z,77742.81
2022-10-05T03:17:49.802Z,77735.09
2022-10-05T03:21:01.551Z,77735.09
2022-10-05T03:23:46.229Z,77731.25
2022-10-05T03:26:24.932Z,77735.09
2022-10-05T03:29:03.625Z,77735.09
2022-10-05T03:31:49.029Z,77721.59
2022-10-05T03:34:26.313Z,77721.59
2022-10-05T03:36:59.638Z,77715.81
2022-10-05T03:39:38.550Z,77713.91
2022-10-05T03:42:30.615Z,77719.69
2022-10-05T03:45:24.134Z,77733.19
2022-10-05T03:48:05.869Z,77735.09
2022-10-05T03:50:51.814Z,77742.81
2022-10-05T03:53:25.414Z,77750.53
2022-10-05T03:55:59.656Z,77746.66
2022-10-05T03:58:39.322Z,77737.03
2022-10-05T04:01:14.696Z,77738.97
2022-10-05T04:03:46.311Z,77737.03
2022-10-05T04:06:25.255Z,77735.09
2022-10-05T04:09:13.946Z,77735.09
2022-10-05T04:12:15.196Z,77723.53
2022-10-05T04:14:51.954Z,77708.13
2022-10-05T04:17:43.901Z,77692.69
2022-10-05T04:20:25.485Z,77659.91
2022-10-05T04:23:24.663Z,77642.56
2022-10-05T04:26:00.583Z,77642.56
2022-10-05T04:28:59.188Z,77623.31
2022-10-05T04:31:52.141Z,77623.31
2022-10-05T04:34:50.748Z,77627.16
2022-10-05T04:37:30.973Z,77621.38
2022-10-05T04:40:19.065Z,77631.00
2022-10-05T04:43:15.364Z,77642.56
2022-10-05T04:45:58.484Z,77640.66
2022-10-05T04:48:38.360Z,77646.44
2022-10-05T04:51:17.866Z,77636.78
2022-10-05T04:53:44.619Z,77636.78
2022-10-05T04:56:40.059Z,77640.66
2022-10-05T04:59:20.363Z,77644.50
2022-10-05T05:02:15.187Z,77646.44
2022-10-05T05:05:29.578Z,77644.50
2022-10-05T05:08:29.487Z,77642.56
2022-10-05T05:10:58.885Z,77638.72
2022-10-05T05:13:56.527Z,77644.50
2022-10-05T05:16:38.409Z,77596.31
2022-10-05T05:19:46.397Z,77472.94
2022-10-05T05:22:41.972Z,77328.38
2022-10-05T05:25:30.684Z,77270.56
2022-10-05T05:28:17.208Z,77264.78
2022-10-05T05:31:04.446Z,77235.88
2022-10-05T05:34:06.371Z,77126.00
2022-10-05T05:36:55.999Z,77021.94
2022-10-05T05:39:46.919Z,76998.81
2022-10-05T05:42:28.106Z,77060.47
2022-10-05T05:45:00.113Z,76937.13
2022-10-05T05:47:38.008Z,76906.31
2022-10-05T05:50:24.672Z,76779.09
2022-10-05T05:53:20.070Z,76636.50
2022-10-05T05:55:52.449Z,76590.25
2022-10-05T05:58:31.336Z,76511.25
2022-10-05T06:01:06.002Z,76488.13
2022-10-05T06:03:46.114Z,76445.72
2022-10-05T06:06:17.225Z,76439.94
2022-10-05T06:08:51.246Z,76544.00
2022-10-05T06:11:53.972Z,76536.28
2022-10-05T06:14:35.087Z,76578.69
2022-10-05T06:17:24.600Z,76459.22
2022-10-05T06:20:01.087Z,76224.13
2022-10-05T06:22:41.076Z,76185.59
2022-10-05T06:25:15.759Z,76145.13
2022-10-05T06:28:02.872Z,76254.97
2022-10-05T06:31:09.864Z,76389.84
2022-10-05T06:33:50.300Z,76249.19
2022-10-05T06:36:42.041Z,76073.84
2022-10-05T06:39:36.493Z,76152.84
2022-10-05T06:42:21.833Z,76039.16
2022-10-05T06:45:52.956Z,76166.34
2022-10-05T06:49:02.889Z,76054.59
2022-10-05T06:51:57.412Z,75989.06
2022-10-05T06:55:01.850Z,75950.53
2022-10-05T06:57:40.577Z,75958.25
2022-10-05T07:00:23.397Z,75952.47
2022-10-05T07:02:52.071Z,75892.75
2022-10-05T07:05:55.771Z,75861.91
2022-10-05T07:08:53.290Z,75842.66
2022-10-05T07:11:57.336Z,75823.38
2022-10-05T07:14:42.004Z,75811.81
2022-10-05T07:17:34.863Z,75759.81
2022-10-05T07:20:18.719Z,75840.72
2022-10-05T07:22:57.837Z,75779.06
2022-10-05T07:25:46.540Z,75908.16
2022-10-05T07:28:23.786Z,75823.38
2022-10-05T07:30:58.464Z,75877.31
2022-10-05T07:33:40.082Z,75854.22
2022-10-05T07:36:50.872Z,75938.97
2022-10-05T07:40:00.498Z,76095.03
2022-10-05T07:42:59.984Z,76004.47
2022-10-05T07:45:51.396Z,75987.16
2022-10-05T07:48:41.427Z,75985.22
2022-10-05T07:51:23.140Z,75919.72
2022-10-05T07:54:08.283Z,75923.56
2022-10-05T07:56:49.197Z,75885.03
2022-10-05T07:59:30.273Z,75877.31
2022-10-05T08:02:13.172Z,75865.75
2022-10-05T08:05:00.404Z,75875.41
2022-10-05T08:07:29.641Z,75886.97
2022-10-05T08:10:15.488Z,75896.59
2022-10-05T08:13:01.407Z,75965.94
2022-10-05T08:15:38.315Z,76058.44
2022-10-05T08:18:22.931Z,76127.78
2022-10-05T08:20:56.736Z,76297.34
2022-10-05T08:23:32.384Z,76349.38
2022-10-05T08:26:01.673Z,76401.41
2022-10-05T08:28:42.669Z,76359.00
2022-10-05T08:31:18.998Z,76318.56
2022-10-05T08:33:51.794Z,76272.31
2022-10-05T08:36:26.074Z,76239.56
2022-10-05T08:38:56.948Z,76137.44
2022-10-05T08:41:45.828Z,76089.25
2022-10-05T08:44:50.357Z,76043.03
2022-10-05T08:47:47.819Z,76048.81
2022-10-05T08:50:47.848Z,75981.38
2022-10-05T08:53:39.909Z,75994.84
2022-10-05T08:56:28.840Z,75991.00
2022-10-05T08:59:17.953Z,75992.94
2022-10-05T09:01:59.812Z,76021.81
2022-10-05T09:04:41.232Z,75987.16
2022-10-05T09:07:26.789Z,76023.75
2022-10-05T09:10:22.360Z,76066.13
2022-10-05T09:13:10.683Z,76077.69
2022-10-05T09:16:07.472Z,76093.13
2022-10-05T09:19:11.074Z,76031.47
2022-10-05T09:21:52.938Z,76046.88
2022-10-05T09:24:43.890Z,76039.16
2022-10-05T09:27:17.493Z,76000.63
2022-10-05T09:30:16.898Z,76043.03
2022-10-05T09:32:43.505Z,76044.94
2022-10-05T09:35:28.200Z,76004.47
2022-10-05T09:38:23.354Z,76012.19
2022-10-05T09:41:15.109Z,76027.59
2022-10-05T09:43:44.657Z,76035.31
2022-10-05T09:46:29.709Z,76008.34
2022-10-05T09:49:53.142Z,76004.47
2022-10-05T09:52:20.129Z,76039.16
2022-10-05T09:55:06.632Z,76039.16
2022-10-05T09:58:03.599Z,76016.03
2022-10-05T10:00:50.185Z,75992.94
2022-10-05T10:03:47.203Z,76050.72
2022-10-05T10:06:30.701Z,76014.13
2022-10-05T10:09:22.819Z,76019.91
2022-10-05T10:12:20.216Z,76019.91
2022-10-05T10:15:05.668Z,76050.72
2022-10-05T10:18:01.943Z,76066.13
2022-10-05T10:20:50.103Z,76070.00
2022-10-05T10:24:00.446Z,76081.56
2022-10-05T10:27:03.783Z,76108.53
2022-10-05T10:29:45.979Z,76112.38
2022-10-05T10:32:28.660Z,76044.94
2022-10-05T10:35:19.357Z,76031.47
2022-10-05T10:38:24.111Z,76002.56
2022-10-05T10:41:09.625Z,75954.38
2022-10-05T10:43:51.715Z,75954.38
2022-10-05T10:46:49.292Z,76010.25
2022-10-05T10:49:39.949Z,75965.94
2022-10-05T10:52:34.388Z,75892.75
2022-10-05T10:55:24.072Z,75873.47
2022-10-05T10:58:21.874Z,75883.09
2022-10-05T11:01:00.662Z,75850.34
2022-10-05T11:03:42.586Z,75823.38
2022-10-05T11:06:26.895Z,75798.34
2022-10-05T11:08:56.534Z,75823.38
2022-10-05T11:11:32.322Z,75846.50
2022-10-05T11:14:04.863Z,75848.44
2022-10-05T11:16:43.460Z,75804.13
2022-10-05T11:19:40.026Z,75790.63
2022-10-05T11:22:46.145Z,75767.50
2022-10-05T11:25:48.257Z,75738.63
2022-10-05T11:28:40.884Z,75763.66
2022-10-05T11:31:26.462Z,75727.06
2022-10-05T11:34:06.722Z,75702.00
2022-10-05T11:37:03.953Z,75707.78
2022-10-05T11:39:43.069Z,75707.78
2022-10-05T11:42:47.416Z,75715.50
2022-10-05T11:45:40.874Z,75711.63
2022-10-05T11:48:33.776Z,75746.31
2022-10-05T11:51:15.357Z,75719.34
2022-10-05T11:54:12.486Z,75727.06
2022-10-05T11:56:44.583Z,75707.78
2022-10-05T11:59:14.859Z,75730.91
2022-10-05T12:01:41.426Z,75711.63
2022-10-05T12:04:29.458Z,75705.84
2022-10-05T12:07:08.105Z,75684.66
2022-10-05T12:10:14.416Z,75690.44
2022-10-05T12:12:51.911Z,75663.47
2022-10-05T12:15:37.681Z,75678.88
2022-10-05T12:18:32.652Z,75700.09
2022-10-05T12:21:06.290Z,75696.22
2022-10-05T12:24:02.154Z,75688.53
2022-10-05T12:26:37.728Z,75684.66
2022-10-05T12:29:43.255Z,75676.97
2022-10-05T12:32:28.887Z,75669.25
2022-10-05T12:35:07.571Z,75669.25
2022-10-05T12:38:07.741Z,75669.25
2022-10-05T12:40:46.193Z,75673.09
2022-10-05T12:43:37.564Z,75680.81
2022-10-05T12:46:25.767Z,75678.88
2022-10-05T12:49:08.072Z,75661.56
2022-10-05T12:51:34.617Z,75678.88
2022-10-05T12:54:10.881Z,75667.31
2022-10-05T12:56:48.217Z,75673.09
2022-10-05T12:59:33.188Z,75675.03
2022-10-05T13:02:02.833Z,75653.84
2022-10-05T13:05:04.322Z,75651.91
2022-10-05T13:07:30.904Z,75665.41
2022-10-05T13:10:35.060Z,75675.03
2022-10-05T13:13:09.286Z,75673.09
2022-10-05T13:15:46.487Z,75700.09
2022-10-05T13:18:30.424Z,75684.66
2022-10-05T13:21:13.014Z,75698.16
2022-10-05T13:23:59.897Z,75688.53
2022-10-05T13:26:46.377Z,75688.53
2022-10-05T13:29:34.770Z,75698.16
2022-10-05T13:32:15.211Z,75698.16
2022-10-05T13:35:13.424Z,75698.16
2022-10-05T13:38:21.492Z,75700.09
2022-10-05T13:41:19.403Z,75707.78
2022-10-05T13:44:23.070Z,75703.94
2022-10-05T13:47:06.083Z,75703.94
2022-10-05T13:49:48.329Z,75702.00
2022-10-05T13:52:29.246Z,75692.38
2022-10-05T13:55:15.949Z,75700.09
2022-10-05T13:57:57.607Z,75703.94
2022-10-05T14:00:26.970Z,75727.06
2022-10-05T14:02:56.881Z,75715.50
2022-10-05T14:05:28.510Z,75711.63
2022-10-05T14:07:56.695Z,75727.06
2022-10-05T14:10:41.863Z,75725.13
2022-10-05T14:13:44.859Z,75736.69
2022-10-05T14:16:26.009Z,75746.31
2022-10-05T14:18:57.791Z,75754.03
2022-10-05T14:21:28.864Z,75742.47
2022-10-05T14:23:58.798Z,75765.59
2022-10-05T14:26:25.452Z,75761.72
2022-10-05T14:29:19.246Z,75769.44
2022-10-05T14:31:55.128Z,75769.44
2022-10-05T14:34:36.659Z,75769.44
2022-10-05T14:37:26.141Z,75767.50
2022-10-05T14:39:58.990Z,75777.13
2022-10-05T14:42:30.369Z,75788.69
2022-10-05T14:45:12.136Z,75792.56
2022-10-05T14:48:06.143Z,75804.13
2022-10-05T14:50:33.184Z,75804.13
2022-10-05T14:53:02.934Z,75807.97
2022-10-05T14:55:35.562Z,75807.97
2022-10-05T14:58:23.824Z,75817.59
2022-10-05T15:01:07.020Z,75817.59
2022-10-05T15:03:40.638Z,75821.44
2022-10-05T15:06:27.110Z,75823.38
2022-10-05T15:09:03.044Z,75833.00
2022-10-05T15:11:42.607Z,75852.28
2022-10-05T15:14:19.461Z,75846.50
2022-10-05T15:16:49.987Z,75852.28
2022-10-05T15:19:35.003Z,75865.75
2022-10-05T15:22:13.334Z,75867.69
2022-10-05T15:24:45.682Z,75875.41
2022-10-05T15:27:28.666Z,75885.03
2022-10-05T15:30:18.196Z,75902.38
2022-10-05T15:32:59.861Z,75913.94
2022-10-05T15:35:29.784Z,75931.28
2022-10-05T15:38:20.991Z,75937.06
2022-10-05T15:41:06.702Z,75960.16
2022-10-05T15:43:56.531Z,75969.81
2022-10-05T15:46:41.340Z,75971.72
2022-10-05T15:49:26.749Z,75973.66
2022-10-05T15:52:31.963Z,75981.38
2022-10-05T15:55:22.215Z,76000.63
2022-10-05T15:57:55.598Z,76010.25
2022-10-05T16:00:25.373Z,76016.03
2022-10-05T16:02:54.846Z,76029.53
2022-10-05T16:06:09.985Z,76019.91
2022-10-05T16:09:07.686Z,76046.88
2022-10-05T16:11:56.506Z,76056.50
2022-10-05T16:14:49.286Z,76062.28
2022-10-05T16:17:18.913Z,76081.56
2022-10-05T16:20:21.050Z,76077.69
2022-10-05T16:23:04.318Z,76091.19
2022-10-05T16:25:49.669Z,76095.03
2022-10-05T16:28:29.307Z,76108.53
2022-10-05T16:31:06.687Z,76116.25
2022-10-05T16:33:54.666Z,76120.09
2022-10-05T16:36:24.417Z,76131.66
2022-10-05T16:38:54.272Z,76123.94
2022-10-05T16:41:27.090Z,76135.50
2022-10-05T16:44:00.197Z,76137.44
2022-10-05T16:46:39.664Z,76152.84
2022-10-05T16:49:18.338Z,76162.47
2022-10-05T16:51:56.969Z,76166.34
2022-10-05T16:54:30.102Z,76166.34
2022-10-05T16:57:27.418Z,76177.91
2022-10-05T17:00:20.675Z,76193.31
2022-10-05T17:03:05.800Z,76204.88
2022-10-05T17:05:36.569Z,76210.66
2022-10-05T17:08:34.269Z,76220.28
2022-10-05T17:11:05.637Z,76220.28
2022-10-05T17:14:05.122Z,76226.06
2022-10-05T17:16:50.396Z,76239.56
2022-10-05T17:19:49.043Z,76235.69
2022-10-05T17:22:24.664Z,76254.97
2022-10-05T17:25:06.648Z,76258.81
2022-10-05T17:27:33.292Z,76266.53
2022-10-05T17:30:18.971Z,76274.22
2022-10-05T17:33:11.739Z,76278.09
2022-10-05T17:35:58.319Z,76289.66
2022-10-05T17:38:31.056Z,76289.66
2022-10-05T17:41:00.677Z,76291.56
2022-10-05T17:43:29.327Z,76297.34
2022-10-05T17:46:00.574Z,76297.34
2022-10-05T17:48:50.134Z,76289.66
2022-10-05T17:51:49.059Z,76297.34
2022-10-05T17:54:42.173Z,76297.34
2022-10-05T17:57:08.871Z,76308.91
2022-10-05T17:59:46.526Z,76318.56
2022-10-05T18:02:19.331Z,76316.63
2022-10-05T18:05:00.591Z,76312.78
2022-10-05T18:07:27.744Z,76324.34
2022-10-05T18:09:58.760Z,76320.47
2022-10-05T18:12:41.321Z,76324.34
2022-10-05T18:15:07.936Z,76333.97
2022-10-05T18:18:33.120Z,76333.97
2022-10-05T18:21:05.992Z,76337.81
2022-10-05T18:23:36.153Z,76347.47
2022-10-05T18:26:43.640Z,76351.31
2022-10-05T18:29:50.903Z,76347.47
2022-10-05T18:32:39.910Z,76351.31
2022-10-05T18:35:19.194Z,76359.00
2022-10-05T18:38:15.540Z,76362.88
2022-10-05T18:41:09.008Z,76374.44
2022-10-05T18:43:45.165Z,76355.16
2022-10-05T18:46:30.422Z,76355.16
2022-10-05T18:49:21.348Z,76370.56
2022-10-05T18:52:03.342Z,76372.50
2022-10-05T18:54:50.251Z,76372.50
2022-10-05T18:57:19.952Z,76370.56
2022-10-05T19:00:00.845Z,76374.44
2022-10-05T19:03:06.616Z,76368.66
2022-10-05T19:05:59.516Z,76378.28
2022-10-05T19:08:29.391Z,76374.44
2022-10-05T19:11:11.935Z,76370.56
2022-10-05T19:13:44.671Z,76374.44
2022-10-05T19:16:24.193Z,76370.56
2022-10-05T19:18:50.830Z,76374.44
2022-10-05T19:21:45.455Z,76366.72
2022-10-05T19:24:31.201Z,76366.72
2022-10-05T19:27:25.587Z,76382.13
2022-10-05T19:30:15.523Z,76386.00
2022-10-05T19:32:45.189Z,76386.00
2022-10-05T19:35:12.058Z,76382.13
2022-10-05T19:37:57.315Z,76387.91
2022-10-05T19:41:08.691Z,76397.56
2022-10-05T19:43:50.594Z,76403.34
2022-10-05T19:46:32.724Z,76409.13
2022-10-05T19:49:00.340Z,76411.03
2022-10-05T19:51:30.567Z,76416.81
2022-10-05T19:54:01.940Z,76424.53
2022-10-05T19:56:33.670Z,76438.03
2022-10-05T19:59:13.275Z,76447.66
2022-10-05T20:01:44.387Z,76455.38
2022-10-05T20:04:11.152Z,76455.38
2022-10-05T20:06:39.690Z,76465.00
2022-10-05T20:09:20.461Z,76480.41
2022-10-05T20:11:51.791Z,76493.91
2022-10-05T20:14:30.094Z,76495.84
2022-10-05T20:17:45.425Z,76503.53
2022-10-05T20:20:29.998Z,76505.47
2022-10-05T20:23:28.081Z,76520.88
2022-10-05T20:26:13.512Z,76518.97
2022-10-05T20:28:40.330Z,76509.31
2022-10-05T20:31:08.278Z,76528.59
2022-10-05T20:33:35.028Z,76536.28
2022-10-05T20:36:03.706Z,76549.78
2022-10-05T20:38:31.742Z,76561.34
2022-10-05T20:40:58.665Z,76567.13
2022-10-05T20:43:25.263Z,76563.28
2022-10-05T20:45:53.860Z,76574.84
2022-10-05T20:48:20.597Z,76582.53
2022-10-05T20:50:47.436Z,76582.53
2022-10-05T20:53:14.068Z,76586.41
2022-10-05T20:55:40.840Z,76578.69
2022-10-05T20:58:09.083Z,76582.53
2022-10-05T21:00:54.155Z,76590.25
2022-10-05T21:03:20.865Z,76594.09
2022-10-05T21:05:47.527Z,76603.75
2022-10-05T21:08:14.228Z,76605.66
2022-10-05T21:10:40.967Z,76609.53
2022-10-05T21:13:07.663Z,76613.38
2022-10-05T21:15:34.300Z,76615.31
2022-10-05T21:18:01.016Z,76619.16
2022-10-05T21:20:27.682Z,76617.22
2022-10-05T21:22:54.362Z,76624.94
2022-10-05T21:25:21.171Z,76630.72
2022-10-05T21:27:49.864Z,76632.66
2022-10-05T21:30:16.590Z,76640.34
2022-10-05T21:32:44.600Z,76644.22
2022-10-05T21:35:11.539Z,76638.44
2022-10-05T21:37:38.210Z,76640.34
2022-10-05T21:40:05.188Z,76640.34
2022-10-05T21:42:31.944Z,76644.22
2022-10-05T21:44:58.658Z,76650.00
2022-10-05T21:47:25.928Z,76657.69
2022-10-05T21:49:52.841Z,76659.63
2022-10-05T21:52:20.450Z,76655.78
2022-10-05T21:54:47.737Z,76659.63
2022-10-05T21:57:15.413Z,76657.69
2022-10-05T21:59:42.760Z,76655.78
2022-10-05T22:02:09.487Z,76655.78
2022-10-05T22:04:36.252Z,76663.47
2022-10-05T22:07:14.106Z,76659.63
2022-10-05T22:09:40.738Z,76663.47
2022-10-05T22:12:07.349Z,76673.13
2022-10-05T22:14:33.985Z,76671.19
2022-10-05T22:17:04.045Z,76671.19
2022-10-05T22:19:30.862Z,76682.75
2022-10-05T22:21:57.554Z,76676.97
2022-10-05T22:24:24.235Z,76684.69
2022-10-05T22:26:51.594Z,76692.38
2022-10-05T22:29:19.814Z,76692.38
2022-10-05T22:31:48.828Z,76700.09
2022-10-05T22:34:16.856Z,76702.03
2022-10-05T22:36:43.704Z,76713.59
2022-10-05T22:39:10.402Z,76715.50
2022-10-05T22:41:37.077Z,76719.38
2022-10-05T22:44:04.303Z,76736.72
2022-10-05T22:46:31.610Z,76734.78
2022-10-05T22:48:58.532Z,76748.28
2022-10-05T22:51:25.242Z,76748.28
2022-10-05T22:53:52.029Z,76763.69
2022-10-05T22:56:19.378Z,76767.53
2022-10-05T22:58:46.644Z,76771.41
2022-10-05T23:01:17.755Z,76779.09
2022-10-05T23:03:45.245Z,76786.81
2022-10-05T23:06:14.700Z,76794.53
2022-10-05T23:08:42.049Z,76800.31
2022-10-05T23:11:17.034Z,76804.16
2022-10-05T23:13:44.036Z,76809.94
2022-10-05T23:16:13.759Z,76817.66
2022-10-05T23:18:40.743Z,76821.50
2022-10-05T23:21:08.701Z,76836.94
2022-10-05T23:23:37.328Z,76844.63
2022-10-05T23:26:06.037Z,76852.34
2022-10-05T23:28:33.733Z,76860.06
2022-10-05T23:31:02.257Z,76865.84
2022-10-05T23:33:29.356Z,76871.63
2022-10-05T23:36:08.085Z,76883.19
2022-10-05T23:38:35.263Z,76885.09
2022-10-05T23:41:02.734Z,76888.97
2022-10-05T23:43:29.828Z,76900.53
2022-10-05T23:45:56.601Z,76906.31
2022-10-05T23:48:23.437Z,76910.16
2022-10-05T23:50:50.236Z,76912.09
2022-10-05T23:53:17.897Z,76914.00
2022-10-05T23:55:45.376Z,76912.09
2022-10-05T23:58:12.368Z,76925.56
